createdAt,value
2022-07-30T00:00:11.066Z,20.37
2022-07-30T00:01:11.123Z,20.38
2022-07-30T00:02:11.065Z,20.36
2022-07-30T00:03:11.061Z,20.35
2022-07-30T00:04:11.069Z,20.36
2022-07-30T00:05:11.067Z,20.34
2022-07-30T00:06:11.062Z,20.33
2022-07-30T00:07:11.069Z,20.31
2022-07-30T00:08:11.066Z,20.31
2022-07-30T00:09:11.062Z,20.29
2022-07-30T00:10:11.066Z,20.28
2022-07-30T00:11:11.067Z,20.29
2022-07-30T00:12:11.064Z,20.27
2022-07-30T00:13:11.066Z,20.23
2022-07-30T00:14:11.075Z,20.23
2022-07-30T00:15:11.065Z,20.21
2022-07-30T00:16:11.162Z,20.22
2022-07-30T00:17:11.117Z,20.19
2022-07-30T00:18:11.942Z,20.16
2022-07-30T00:19:11.069Z,20.15
2022-07-30T00:20:11.320Z,20.14
2022-07-30T00:21:11.114Z,20.11
2022-07-30T00:22:11.070Z,20.10
2022-07-30T00:23:11.057Z,20.09
2022-07-30T00:24:11.056Z,20.06
2022-07-30T00:25:11.055Z,20.04
2022-07-30T00:26:11.056Z,19.99
2022-07-30T00:27:11.053Z,19.98
2022-07-30T00:28:11.063Z,19.99
2022-07-30T00:29:11.053Z,19.95
2022-07-30T00:30:11.055Z,19.93
2022-07-30T00:31:11.130Z,19.90
2022-07-30T00:32:11.053Z,19.90
2022-07-30T00:33:11.057Z,19.89
2022-07-30T00:34:11.077Z,19.88
2022-07-30T00:35:11.055Z,19.87
2022-07-30T00:36:11.063Z,19.84
2022-07-30T00:37:11.054Z,19.83
2022-07-30T00:38:11.057Z,19.80
2022-07-30T00:39:11.062Z,19.77
2022-07-30T00:40:11.057Z,19.79
2022-07-30T00:41:11.051Z,19.79
2022-07-30T00:42:11.065Z,19.75
2022-07-30T00:43:13.059Z,19.77
2022-07-30T00:44:11.055Z,19.76
2022-07-30T00:45:11.057Z,19.76
2022-07-30T00:46:11.162Z,19.76
2022-07-30T00:47:11.053Z,19.77
2022-07-30T00:48:11.056Z,19.77
2022-07-30T00:49:11.168Z,19.77
2022-07-30T00:50:11.056Z,19.75
2022-07-30T00:51:11.060Z,19.75
2022-07-30T00:52:11.057Z,19.79
2022-07-30T00:53:11.058Z,19.79
2022-07-30T00:54:11.059Z,19.78
2022-07-30T00:55:11.058Z,19.80
2022-07-30T00:56:11.058Z,19.83
2022-07-30T00:57:11.062Z,19.84
2022-07-30T00:58:11.059Z,19.84
2022-07-30T00:59:11.058Z,19.86
2022-07-30T01:00:12.062Z,19.86
2022-07-30T01:01:11.100Z,19.87
2022-07-30T01:02:11.076Z,19.88
2022-07-30T01:03:11.059Z,19.88
2022-07-30T01:04:15.069Z,19.85
2022-07-30T01:05:11.061Z,19.88
2022-07-30T01:06:14.196Z,19.87
2022-07-30T01:07:11.062Z,19.88
2022-07-30T01:08:11.060Z,19.86
2022-07-30T01:09:11.060Z,19.89
2022-07-30T01:10:11.060Z,19.88
2022-07-30T01:11:11.064Z,19.89
2022-07-30T01:12:11.059Z,19.87
2022-07-30T01:13:11.061Z,19.87
2022-07-30T01:14:11.061Z,19.88
2022-07-30T01:15:11.062Z,19.88
2022-07-30T01:16:11.134Z,19.89
2022-07-30T01:17:11.063Z,19.85
2022-07-30T01:18:12.060Z,19.81
2022-07-30T01:19:21.063Z,19.83
2022-07-30T01:20:13.069Z,19.84
2022-07-30T01:21:15.060Z,19.84
2022-07-30T01:22:21.064Z,19.84
2022-07-30T01:23:17.057Z,19.84
2022-07-30T01:24:19.072Z,19.78
2022-07-30T01:25:16.080Z,19.78
2022-07-30T01:26:15.059Z,19.78
2022-07-30T01:27:11.061Z,19.79
2022-07-30T01:28:15.061Z,19.79
2022-07-30T01:29:11.060Z,19.81
2022-07-30T01:30:11.058Z,19.79
2022-07-30T01:31:11.177Z,19.77
2022-07-30T01:32:11.059Z,19.79
2022-07-30T01:33:14.062Z,19.82
2022-07-30T01:34:11.063Z,19.83
2022-07-30T01:35:11.061Z,19.83
2022-07-30T01:36:12.067Z,19.87
2022-07-30T01:37:12.063Z,19.86
2022-07-30T01:38:11.061Z,19.88
2022-07-30T01:39:11.060Z,19.87
2022-07-30T01:40:11.060Z,19.88
2022-07-30T01:41:11.065Z,19.89
2022-07-30T01:42:11.066Z,19.90
2022-07-30T01:43:11.061Z,19.91
2022-07-30T01:44:11.064Z,19.92
2022-07-30T01:45:11.061Z,19.93
2022-07-30T01:46:11.119Z,19.93
2022-07-30T01:47:11.070Z,19.94
2022-07-30T01:48:11.058Z,19.90
2022-07-30T01:49:11.236Z,19.91
2022-07-30T01:50:13.072Z,19.90
2022-07-30T01:51:11.060Z,19.89
2022-07-30T01:52:11.067Z,19.89
2022-07-30T01:53:13.075Z,19.91
2022-07-30T01:54:11.066Z,19.91
2022-07-30T01:55:17.019Z,19.91
2022-07-30T01:56:13.359Z,19.88
2022-07-30T01:57:11.067Z,19.91
2022-07-30T01:58:11.060Z,19.89
2022-07-30T01:59:11.064Z,19.89
2022-07-30T02:00:11.070Z,19.91
2022-07-30T02:01:11.155Z,19.92
2022-07-30T02:02:11.067Z,19.95
2022-07-30T02:03:11.152Z,19.96
2022-07-30T02:04:11.066Z,19.95
2022-07-30T02:05:11.064Z,19.92
2022-07-30T02:06:14.067Z,19.93
2022-07-30T02:07:21.074Z,19.94
2022-07-30T02:08:20.063Z,19.94
2022-07-30T02:09:11.577Z,19.96
2022-07-30T02:10:17.068Z,19.97
2022-07-30T02:11:15.068Z,19.96
2022-07-30T02:12:16.063Z,19.99
2022-07-30T02:13:11.065Z,19.96
2022-07-30T02:14:17.068Z,19.99
2022-07-30T02:15:19.068Z,20.01
2022-07-30T02:16:17.128Z,20.02
2022-07-30T02:17:18.965Z,20.02
2022-07-30T02:18:19.366Z,20.02
2022-07-30T02:19:17.074Z,20.01
2022-07-30T02:20:11.068Z,20.02
2022-07-30T02:21:11.490Z,20.01
2022-07-30T02:22:13.066Z,20.02
2022-07-30T02:23:14.061Z,20.02
2022-07-30T02:24:14.058Z,20.01
2022-07-30T02:25:13.059Z,20.02
2022-07-30T02:26:12.068Z,20.05
2022-07-30T02:27:16.059Z,20.07
2022-07-30T02:28:12.060Z,20.07
2022-07-30T02:29:11.557Z,20.09
2022-07-30T02:30:11.075Z,20.03
2022-07-30T02:31:16.923Z,20.01
2022-07-30T02:32:15.154Z,20.00
2022-07-30T02:33:11.068Z,20.01
2022-07-30T02:34:11.065Z,20.00
2022-07-30T02:35:17.064Z,19.99
2022-07-30T02:36:11.223Z,19.99
2022-07-30T02:37:11.064Z,20.01
2022-07-30T02:38:12.059Z,20.00
2022-07-30T02:39:11.064Z,19.99
2022-07-30T02:40:11.066Z,19.98
2022-07-30T02:41:11.062Z,19.96
2022-07-30T02:42:12.062Z,19.98
2022-07-30T02:43:11.064Z,19.98
2022-07-30T02:44:11.064Z,19.99
2022-07-30T02:45:11.064Z,20.01
2022-07-30T02:46:11.116Z,20.04
2022-07-30T02:47:11.085Z,20.05
2022-07-30T02:48:12.063Z,20.05
2022-07-30T02:49:13.174Z,20.04
2022-07-30T02:50:11.060Z,20.02
2022-07-30T02:51:11.063Z,19.95
2022-07-30T02:52:12.066Z,19.99
2022-07-30T02:53:11.065Z,20.01
2022-07-30T02:54:11.067Z,19.99
2022-07-30T02:55:11.075Z,20.01
2022-07-30T02:56:11.066Z,20.00
2022-07-30T02:57:11.069Z,20.01
2022-07-30T02:58:11.073Z,19.95
2022-07-30T02:59:11.069Z,19.92
2022-07-30T03:00:11.062Z,19.93
2022-07-30T03:01:11.141Z,19.92
2022-07-30T03:02:11.093Z,19.91
2022-07-30T03:03:12.064Z,19.90
2022-07-30T03:04:11.066Z,19.90
2022-07-30T03:05:11.069Z,19.90
2022-07-30T03:06:13.064Z,19.90
2022-07-30T03:07:11.506Z,19.85
2022-07-30T03:08:11.067Z,19.75
2022-07-30T03:09:11.067Z,19.77
2022-07-30T03:10:11.070Z,19.73
2022-07-30T03:11:12.071Z,19.68
2022-07-30T03:12:11.066Z,19.67
2022-07-30T03:13:11.067Z,19.63
2022-07-30T03:14:11.070Z,19.64
2022-07-30T03:15:11.067Z,19.60
2022-07-30T03:16:11.117Z,19.58
2022-07-30T03:17:11.071Z,19.55
2022-07-30T03:18:14.069Z,19.57
2022-07-30T03:19:11.070Z,19.58
2022-07-30T03:20:15.071Z,19.59
2022-07-30T03:21:11.071Z,19.59
2022-07-30T03:22:11.065Z,19.57
2022-07-30T03:23:11.061Z,19.55
2022-07-30T03:24:12.059Z,19.58
2022-07-30T03:25:11.059Z,19.58
2022-07-30T03:26:11.057Z,19.51
2022-07-30T03:27:11.061Z,19.51
2022-07-30T03:28:11.057Z,19.52
2022-07-30T03:29:11.060Z,19.51
2022-07-30T03:30:11.061Z,19.51
2022-07-30T03:31:11.753Z,19.50
2022-07-30T03:32:13.646Z,19.49
2022-07-30T03:33:11.067Z,19.51
2022-07-30T03:34:12.678Z,19.51
2022-07-30T03:35:17.486Z,19.51
2022-07-30T03:36:14.229Z,19.48
2022-07-30T03:37:11.061Z,19.49
2022-07-30T03:38:12.060Z,19.50
2022-07-30T03:39:11.060Z,19.50
2022-07-30T03:40:11.061Z,19.46
2022-07-30T03:41:11.059Z,19.49
2022-07-30T03:42:11.061Z,19.48
2022-07-30T03:43:32.734Z,19.51
2022-07-30T03:44:13.172Z,19.50
2022-07-30T03:45:11.057Z,19.52
2022-07-30T03:46:11.135Z,19.51
2022-07-30T03:47:11.061Z,19.54
2022-07-30T03:48:11.061Z,19.52
2022-07-30T03:49:11.134Z,19.46
2022-07-30T03:50:11.062Z,19.48
2022-07-30T03:51:11.060Z,19.45
2022-07-30T03:52:11.061Z,19.42
2022-07-30T03:53:11.065Z,19.42
2022-07-30T03:54:13.738Z,19.39
2022-07-30T03:55:11.067Z,19.38
2022-07-30T03:56:11.068Z,19.37
2022-07-30T03:57:11.061Z,19.40
2022-07-30T03:58:13.170Z,19.39
2022-07-30T03:59:11.065Z,19.39
2022-07-30T04:00:14.066Z,19.40
2022-07-30T04:01:11.062Z,19.38
2022-07-30T04:02:11.096Z,19.38
2022-07-30T04:03:11.065Z,19.38
2022-07-30T04:04:11.111Z,19.35
2022-07-30T04:05:11.064Z,19.33
2022-07-30T04:06:11.067Z,19.30
2022-07-30T04:07:11.066Z,19.28
2022-07-30T04:08:11.064Z,19.29
2022-07-30T04:09:11.067Z,19.25
2022-07-30T04:10:11.063Z,19.28
2022-07-30T04:11:11.067Z,19.24
2022-07-30T04:12:11.066Z,19.23
2022-07-30T04:13:11.064Z,19.22
2022-07-30T04:14:11.065Z,19.17
2022-07-30T04:16:15.846Z,19.16
2022-07-30T04:16:38.994Z,19.14
2022-07-30T04:17:21.149Z,19.16
2022-07-30T04:18:12.067Z,19.19
2022-07-30T04:19:15.068Z,19.16
2022-07-30T04:20:18.165Z,19.13
2022-07-30T04:21:17.026Z,19.15
2022-07-30T04:22:11.067Z,19.16
2022-07-30T04:23:11.066Z,19.12
2022-07-30T04:24:11.058Z,19.12
2022-07-30T04:25:12.059Z,19.12
2022-07-30T04:26:13.167Z,19.14
2022-07-30T04:27:11.062Z,19.16
2022-07-30T04:28:11.058Z,19.18
2022-07-30T04:29:16.662Z,19.19
2022-07-30T04:30:13.117Z,19.18
2022-07-30T04:31:11.083Z,19.22
2022-07-30T04:32:11.062Z,19.18
2022-07-30T04:33:11.067Z,19.16
2022-07-30T04:34:12.059Z,19.17
2022-07-30T04:35:11.065Z,19.10
2022-07-30T04:36:16.215Z,19.11
2022-07-30T04:37:11.062Z,19.06
2022-07-30T04:38:11.061Z,19.06
2022-07-30T04:39:11.060Z,19.05
2022-07-30T04:40:11.065Z,19.01
2022-07-30T04:41:11.059Z,19.04
2022-07-30T04:42:11.064Z,19.04
2022-07-30T04:43:11.069Z,19.00
2022-07-30T04:44:11.065Z,18.97
2022-07-30T04:45:11.580Z,18.87
2022-07-30T04:46:11.166Z,18.87
2022-07-30T04:47:11.064Z,18.91
2022-07-30T04:48:11.069Z,18.88
2022-07-30T04:49:11.112Z,18.84
2022-07-30T04:50:12.063Z,18.85
2022-07-30T04:51:19.061Z,18.89
2022-07-30T04:52:11.065Z,18.89
2022-07-30T04:53:11.071Z,18.92
2022-07-30T04:54:15.399Z,18.91
2022-07-30T04:55:11.073Z,18.92
2022-07-30T04:56:11.066Z,18.92
2022-07-30T04:57:11.066Z,18.90
2022-07-30T04:58:11.061Z,18.95
2022-07-30T04:59:11.066Z,18.92
2022-07-30T05:00:11.064Z,18.87
2022-07-30T05:01:11.101Z,18.88
2022-07-30T05:02:11.119Z,18.90
2022-07-30T05:03:13.066Z,18.93
2022-07-30T05:04:11.064Z,18.95
2022-07-30T05:05:11.127Z,18.94
2022-07-30T05:06:11.066Z,18.93
2022-07-30T05:07:12.064Z,18.94
2022-07-30T05:08:12.064Z,18.94
2022-07-30T05:09:11.068Z,18.96
2022-07-30T05:10:11.065Z,18.94
2022-07-30T05:11:13.066Z,18.94
2022-07-30T05:12:11.075Z,18.97
2022-07-30T05:13:16.068Z,18.97
2022-07-30T05:14:11.068Z,18.97
2022-07-30T05:15:11.067Z,18.97
2022-07-30T05:16:11.111Z,19.00
2022-07-30T05:17:11.066Z,19.01
2022-07-30T05:18:11.066Z,19.02
2022-07-30T05:19:11.068Z,19.00
2022-07-30T05:20:11.067Z,19.05
2022-07-30T05:21:11.068Z,19.05
2022-07-30T05:22:11.072Z,19.00
2022-07-30T05:23:11.063Z,18.91
2022-07-30T05:24:11.059Z,18.91
2022-07-30T05:25:16.246Z,18.98
2022-07-30T05:26:14.058Z,18.96
2022-07-30T05:27:11.058Z,18.97
2022-07-30T05:28:11.062Z,18.96
2022-07-30T05:29:19.300Z,18.92
2022-07-30T05:30:13.158Z,18.87
2022-07-30T05:31:11.093Z,18.88
2022-07-30T05:32:11.067Z,18.89
2022-07-30T05:33:15.698Z,18.88
2022-07-30T05:34:11.062Z,18.89
2022-07-30T05:35:11.070Z,18.91
2022-07-30T05:36:11.060Z,18.93
2022-07-30T05:37:12.290Z,18.96
2022-07-30T05:38:11.070Z,18.97
2022-07-30T05:39:11.061Z,18.94
2022-07-30T05:40:11.063Z,18.91
2022-07-30T05:41:19.055Z,18.97
2022-07-30T05:42:13.163Z,18.97
2022-07-30T05:43:11.064Z,18.98
2022-07-30T05:44:11.071Z,19.00
2022-07-30T05:45:11.064Z,18.98
2022-07-30T05:46:11.121Z,18.98
2022-07-30T05:47:11.065Z,19.02
2022-07-30T05:48:11.065Z,19.00
2022-07-30T05:49:11.131Z,19.00
2022-07-30T05:50:11.068Z,18.99
2022-07-30T05:51:11.066Z,19.02
2022-07-30T05:52:11.067Z,19.01
2022-07-30T05:53:11.067Z,19.04
2022-07-30T05:54:11.067Z,19.13
2022-07-30T05:55:11.066Z,19.18
2022-07-30T05:56:11.065Z,19.20
2022-07-30T05:57:11.069Z,19.23
2022-07-30T05:58:11.066Z,19.24
2022-07-30T05:59:11.067Z,19.26
2022-07-30T06:00:11.067Z,19.27
2022-07-30T06:01:12.105Z,19.31
2022-07-30T06:02:11.066Z,19.31
2022-07-30T06:03:11.068Z,19.33
2022-07-30T06:04:11.075Z,19.33
2022-07-30T06:05:11.068Z,19.34
2022-07-30T06:06:11.073Z,19.34
2022-07-30T06:07:11.065Z,19.28
2022-07-30T06:08:11.068Z,19.28
2022-07-30T06:09:11.075Z,19.29
2022-07-30T06:10:11.066Z,19.34
2022-07-30T06:11:12.067Z,19.36
2022-07-30T06:12:11.074Z,19.37
2022-07-30T06:13:11.066Z,19.26
2022-07-30T06:14:11.069Z,19.26
2022-07-30T06:15:11.076Z,19.26
2022-07-30T06:16:11.127Z,19.27
2022-07-30T06:17:11.071Z,19.30
2022-07-30T06:18:11.081Z,19.35
2022-07-30T06:19:11.070Z,19.34
2022-07-30T06:20:13.181Z,19.34
2022-07-30T06:21:11.071Z,19.40
2022-07-30T06:22:11.072Z,19.41
2022-07-30T06:23:11.058Z,19.43
2022-07-30T06:24:11.059Z,19.46
2022-07-30T06:25:11.060Z,19.49
2022-07-30T06:26:11.057Z,19.49
2022-07-30T06:27:11.057Z,19.45
2022-07-30T06:28:35.129Z,19.45
2022-07-30T06:29:13.394Z,19.44
2022-07-30T06:30:11.060Z,19.48
2022-07-30T06:31:11.155Z,19.49
2022-07-30T06:32:11.062Z,19.51
2022-07-30T06:33:11.064Z,19.49
2022-07-30T06:34:11.069Z,19.49
2022-07-30T06:35:11.063Z,19.50
2022-07-30T06:36:14.192Z,19.53
2022-07-30T06:37:11.068Z,19.55
2022-07-30T06:38:11.061Z,19.59
2022-07-30T06:39:11.063Z,19.55
2022-07-30T06:40:11.068Z,19.55
2022-07-30T06:41:11.092Z,19.47
2022-07-30T06:42:11.063Z,19.54
2022-07-30T06:43:11.069Z,19.56
2022-07-30T06:44:11.059Z,19.58
2022-07-30T06:45:11.064Z,19.54
2022-07-30T06:46:11.131Z,19.59
2022-07-30T06:47:11.605Z,19.60
2022-07-30T06:48:11.062Z,19.60
2022-07-30T06:49:11.159Z,19.59
2022-07-30T06:50:11.060Z,19.61
2022-07-30T06:51:11.063Z,19.65
2022-07-30T06:52:13.549Z,19.68
2022-07-30T06:53:13.141Z,19.71
2022-07-30T06:54:11.060Z,19.67
2022-07-30T06:55:11.064Z,19.68
2022-07-30T06:56:11.065Z,19.67
2022-07-30T06:57:11.062Z,19.73
2022-07-30T06:58:11.067Z,19.73
2022-07-30T06:59:11.065Z,19.70
2022-07-30T07:00:11.063Z,19.73
2022-07-30T07:01:11.583Z,19.75
2022-07-30T07:02:11.067Z,19.72
2022-07-30T07:03:11.956Z,19.68
2022-07-30T07:04:11.109Z,19.71
2022-07-30T07:05:11.068Z,19.69
2022-07-30T07:06:11.064Z,19.72
2022-07-30T07:07:12.401Z,19.71
2022-07-30T07:08:11.068Z,19.74
2022-07-30T07:09:11.065Z,19.77
2022-07-30T07:10:11.075Z,19.79
2022-07-30T07:11:11.085Z,19.82
2022-07-30T07:12:11.065Z,19.83
2022-07-30T07:13:11.065Z,19.87
2022-07-30T07:14:11.071Z,19.93
2022-07-30T07:15:11.069Z,19.91
2022-07-30T07:16:11.066Z,19.98
2022-07-30T07:17:11.142Z,20.06
2022-07-30T07:18:11.066Z,20.00
2022-07-30T07:19:11.067Z,19.99
2022-07-30T07:20:11.078Z,19.96
2022-07-30T07:21:11.067Z,20.01
2022-07-30T07:22:11.068Z,19.99
2022-07-30T07:23:12.228Z,19.99
2022-07-30T07:24:11.056Z,20.03
2022-07-30T07:25:11.060Z,20.08
2022-07-30T07:26:11.068Z,20.07
2022-07-30T07:27:15.291Z,20.09
2022-07-30T07:28:13.402Z,20.12
2022-07-30T07:29:11.070Z,20.20
2022-07-30T07:30:11.060Z,20.23
2022-07-30T07:31:11.135Z,20.30
2022-07-30T07:32:11.145Z,20.30
2022-07-30T07:33:11.084Z,20.25
2022-07-30T07:34:15.452Z,20.19
2022-07-30T07:35:13.937Z,20.18
2022-07-30T07:36:11.064Z,20.27
2022-07-30T07:37:11.057Z,20.31
2022-07-30T07:38:11.064Z,20.31
2022-07-30T07:39:14.878Z,20.36
2022-07-30T07:40:11.061Z,20.30
2022-07-30T07:41:11.060Z,20.27
2022-07-30T07:42:11.063Z,20.27
2022-07-30T07:43:11.061Z,20.26
2022-07-30T07:44:11.061Z,20.28
2022-07-30T07:45:11.064Z,20.29
2022-07-30T07:46:11.108Z,20.26
2022-07-30T07:47:11.062Z,20.21
2022-07-30T07:48:11.068Z,20.26
2022-07-30T07:49:11.177Z,20.27
2022-07-30T07:50:11.063Z,20.24
2022-07-30T07:51:11.065Z,20.24
2022-07-30T07:52:11.062Z,20.16
2022-07-30T07:53:11.065Z,20.18
2022-07-30T07:54:20.952Z,20.20
2022-07-30T07:55:13.155Z,20.22
2022-07-30T07:56:12.072Z,20.13
2022-07-30T07:57:12.852Z,20.16
2022-07-30T07:58:11.065Z,20.16
2022-07-30T07:59:11.063Z,20.15
2022-07-30T08:00:11.067Z,20.15
2022-07-30T08:01:11.148Z,20.06
2022-07-30T08:02:11.105Z,20.05
2022-07-30T08:03:11.066Z,20.06
2022-07-30T08:04:11.076Z,20.11
2022-07-30T08:05:11.064Z,20.15
2022-07-30T08:06:15.015Z,20.11
2022-07-30T08:07:11.073Z,20.11
2022-07-30T08:08:11.066Z,20.13
2022-07-30T08:09:11.069Z,20.16
2022-07-30T08:10:11.088Z,20.15
2022-07-30T08:11:11.067Z,20.23
2022-07-30T08:12:11.062Z,20.24
2022-07-30T08:13:49.293Z,20.27
2022-07-30T08:14:13.168Z,20.18
2022-07-30T08:15:11.065Z,20.11
2022-07-30T08:16:12.594Z,20.10
2022-07-30T08:17:11.115Z,20.14
2022-07-30T08:18:11.066Z,20.17
2022-07-30T08:19:11.067Z,20.20
2022-07-30T08:20:11.067Z,20.22
2022-07-30T08:21:11.067Z,20.21
2022-07-30T08:22:11.072Z,20.13
2022-07-30T08:23:11.059Z,20.13
2022-07-30T08:24:11.058Z,20.08
2022-07-30T08:25:11.058Z,20.16
2022-07-30T08:26:11.062Z,20.21
2022-07-30T08:27:11.062Z,20.23
2022-07-30T08:28:35.490Z,20.28
2022-07-30T08:29:17.085Z,20.32
2022-07-30T08:30:11.067Z,20.36
2022-07-30T08:31:11.060Z,20.42
2022-07-30T08:32:11.069Z,20.46
2022-07-30T08:33:11.062Z,20.52
2022-07-30T08:34:11.059Z,20.63
2022-07-30T08:35:11.074Z,20.71
2022-07-30T08:36:11.063Z,20.79
2022-07-30T08:37:11.057Z,20.85
2022-07-30T08:38:11.064Z,20.85
2022-07-30T08:39:11.063Z,20.88
2022-07-30T08:40:11.061Z,20.91
2022-07-30T08:41:11.066Z,20.85
2022-07-30T08:42:12.064Z,20.88
2022-07-30T08:43:11.062Z,20.87
2022-07-30T08:44:12.896Z,20.88
2022-07-30T08:45:12.066Z,20.95
2022-07-30T08:46:12.067Z,21.03
2022-07-30T08:47:11.073Z,21.13
2022-07-30T08:48:16.293Z,21.05
2022-07-30T08:49:11.596Z,20.94
2022-07-30T08:50:11.072Z,21.02
2022-07-30T08:51:11.074Z,21.12
2022-07-30T08:52:12.063Z,21.18
2022-07-30T08:53:11.065Z,21.15
2022-07-30T08:54:11.081Z,21.20
2022-07-30T08:55:11.092Z,21.21
2022-07-30T08:56:11.067Z,21.23
2022-07-30T08:57:11.067Z,21.26
2022-07-30T08:58:19.063Z,21.24
2022-07-30T08:59:11.067Z,21.20
2022-07-30T09:00:11.065Z,21.13
2022-07-30T09:01:11.068Z,20.96
2022-07-30T09:02:13.102Z,20.97
2022-07-30T09:03:11.066Z,20.93
2022-07-30T09:04:11.076Z,20.89
2022-07-30T09:05:11.070Z,20.99
2022-07-30T09:06:11.066Z,21.09
2022-07-30T09:07:11.071Z,21.17
2022-07-30T09:08:11.066Z,21.25
2022-07-30T09:09:11.067Z,21.32
2022-07-30T09:10:11.068Z,21.50
2022-07-30T09:11:11.065Z,21.63
2022-07-30T09:12:19.070Z,21.73
2022-07-30T09:13:19.081Z,21.93
2022-07-30T09:14:14.070Z,22.13
2022-07-30T09:15:15.074Z,22.33
2022-07-30T09:16:19.087Z,22.49
2022-07-30T09:17:11.077Z,22.54
2022-07-30T09:18:11.066Z,22.52
2022-07-30T09:19:17.074Z,22.48
2022-07-30T09:20:11.075Z,22.50
2022-07-30T09:21:18.072Z,22.57
2022-07-30T09:22:11.068Z,22.56
2022-07-30T09:23:11.061Z,22.57
2022-07-30T09:24:11.060Z,22.55
2022-07-30T09:25:11.058Z,22.49
2022-07-30T09:26:11.059Z,22.53
2022-07-30T09:27:11.060Z,22.57
2022-07-30T09:28:16.626Z,22.48
2022-07-30T09:29:17.247Z,22.54
2022-07-30T09:30:11.066Z,22.40
2022-07-30T09:31:11.062Z,22.42
2022-07-30T09:32:11.057Z,22.46
2022-07-30T09:33:11.059Z,22.42
2022-07-30T09:34:19.062Z,22.47
2022-07-30T09:35:15.058Z,22.35
2022-07-30T09:36:11.058Z,22.43
2022-07-30T09:37:19.068Z,22.31
2022-07-30T09:38:11.064Z,22.35
2022-07-30T09:39:11.063Z,22.33
2022-07-30T09:40:17.141Z,22.31
2022-07-30T09:41:23.036Z,22.27
2022-07-30T09:42:21.107Z,22.15
2022-07-30T09:43:13.060Z,22.30
2022-07-30T09:44:11.062Z,22.38
2022-07-30T09:45:14.063Z,22.42
2022-07-30T09:46:11.062Z,22.52
2022-07-30T09:47:15.075Z,22.54
2022-07-30T09:48:19.064Z,22.56
2022-07-30T09:49:17.359Z,22.61
2022-07-30T09:50:17.774Z,22.61
2022-07-30T09:51:16.005Z,22.66
2022-07-30T09:52:11.062Z,22.66
2022-07-30T09:53:11.933Z,22.74
2022-07-30T09:54:11.063Z,22.84
2022-07-30T09:55:11.064Z,22.88
2022-07-30T09:56:19.067Z,22.88
2022-07-30T09:57:22.876Z,22.88
2022-07-30T09:58:26.388Z,22.82
2022-07-30T09:59:21.290Z,22.84
2022-07-30T10:00:18.583Z,22.65
2022-07-30T10:01:11.063Z,22.51
2022-07-30T10:02:11.072Z,22.54
2022-07-30T10:03:21.759Z,22.45
2022-07-30T10:04:13.103Z,22.36
2022-07-30T10:05:16.068Z,22.31
2022-07-30T10:06:11.657Z,22.27
2022-07-30T10:07:25.547Z,22.30
2022-07-30T10:08:16.795Z,22.24
2022-07-30T10:09:14.050Z,22.17
2022-07-30T10:10:11.068Z,22.21
2022-07-30T10:11:15.068Z,22.20
2022-07-30T10:12:11.473Z,22.17
2022-07-30T10:13:13.617Z,22.11
2022-07-30T10:14:11.069Z,22.15
2022-07-30T10:15:11.073Z,22.19
2022-07-30T10:16:11.068Z,22.12
2022-07-30T10:17:11.075Z,22.10
2022-07-30T10:18:11.067Z,22.04
2022-07-30T10:19:19.223Z,22.06
2022-07-30T10:20:13.163Z,22.09
2022-07-30T10:21:11.068Z,22.06
2022-07-30T10:22:11.537Z,22.06
2022-07-30T10:23:11.060Z,22.02
2022-07-30T10:24:11.063Z,21.99
2022-07-30T10:25:11.057Z,21.94
2022-07-30T10:26:13.138Z,21.96
2022-07-30T10:27:11.066Z,21.86
2022-07-30T10:28:11.057Z,21.81
2022-07-30T10:29:12.928Z,21.80
2022-07-30T10:30:13.676Z,21.83
2022-07-30T10:31:49.435Z,21.80
2022-07-30T10:32:13.180Z,21.74
2022-07-30T10:33:11.301Z,21.79
2022-07-30T10:34:13.183Z,21.73
2022-07-30T10:35:11.061Z,21.69
2022-07-30T10:36:12.061Z,21.74
2022-07-30T10:37:11.063Z,21.75
2022-07-30T10:38:13.473Z,21.78
2022-07-30T10:39:14.058Z,21.75
2022-07-30T10:40:19.064Z,21.67
2022-07-30T10:41:42.331Z,21.72
2022-07-30T10:42:21.069Z,21.74
2022-07-30T10:43:19.059Z,21.71
2022-07-30T10:44:19.610Z,21.65
2022-07-30T10:45:18.130Z,21.66
2022-07-30T10:46:22.048Z,21.72
2022-07-30T10:47:12.071Z,21.77
2022-07-30T10:48:11.061Z,21.80
2022-07-30T10:49:11.746Z,21.79
2022-07-30T10:50:22.363Z,21.86
2022-07-30T10:51:11.064Z,21.95
2022-07-30T10:52:13.187Z,22.02
2022-07-30T10:53:11.067Z,22.09
2022-07-30T10:54:19.063Z,22.19
2022-07-30T10:55:18.062Z,22.25
2022-07-30T10:56:25.603Z,22.31
2022-07-30T10:57:26.527Z,22.42
2022-07-30T10:58:17.950Z,22.48
2022-07-30T10:59:14.980Z,22.53
2022-07-30T11:00:11.068Z,22.48
2022-07-30T11:01:18.463Z,22.53
2022-07-30T11:02:13.138Z,22.56
2022-07-30T11:03:18.187Z,22.56
2022-07-30T11:04:20.264Z,22.57
2022-07-30T11:05:27.266Z,22.56
2022-07-30T11:06:24.873Z,22.59
2022-07-30T11:07:19.068Z,22.50
2022-07-30T11:08:19.078Z,22.50
2022-07-30T11:09:21.237Z,22.46
2022-07-30T11:10:19.065Z,22.51
2022-07-30T11:11:20.261Z,22.49
2022-07-30T11:12:12.761Z,22.54
2022-07-30T11:13:11.072Z,22.50
2022-07-30T11:14:11.065Z,22.53
2022-07-30T11:15:19.343Z,22.47
2022-07-30T11:16:13.185Z,22.46
2022-07-30T11:17:11.065Z,22.33
2022-07-30T11:18:12.117Z,22.28
2022-07-30T11:19:56.148Z,22.30
2022-07-30T11:20:15.336Z,22.34
2022-07-30T11:21:15.063Z,22.35
2022-07-30T11:22:19.073Z,22.32
2022-07-30T11:23:19.058Z,22.26
2022-07-30T11:24:19.056Z,22.33
2022-07-30T11:25:15.058Z,22.30
2022-07-30T11:26:14.197Z,22.28
2022-07-30T11:27:11.065Z,22.27
2022-07-30T11:28:19.056Z,22.23
2022-07-30T11:29:19.061Z,22.28
2022-07-30T11:30:24.288Z,22.39
2022-07-30T11:31:19.072Z,22.43
2022-07-30T11:32:22.059Z,22.43
2022-07-30T11:33:19.059Z,22.50
2022-07-30T11:34:19.056Z,22.44
2022-07-30T11:35:19.059Z,22.50
2022-07-30T11:36:12.081Z,22.54
2022-07-30T11:37:18.272Z,22.51
2022-07-30T11:38:15.110Z,22.53
2022-07-30T11:39:11.062Z,22.54
2022-07-30T11:40:11.238Z,22.53
2022-07-30T11:41:13.059Z,22.53
2022-07-30T11:42:19.061Z,22.48
2022-07-30T11:43:34.783Z,22.44
2022-07-30T11:44:21.350Z,22.48
2022-07-30T11:45:20.062Z,22.47
2022-07-30T11:46:16.481Z,22.42
2022-07-30T11:47:11.060Z,22.44
2022-07-30T11:48:14.070Z,22.45
2022-07-30T11:49:12.131Z,22.51
2022-07-30T11:50:18.065Z,22.54
2022-07-30T11:51:11.061Z,22.55
2022-07-30T11:52:11.064Z,22.57
2022-07-30T11:53:17.060Z,22.58
2022-07-30T11:54:11.065Z,22.58
2022-07-30T11:55:11.070Z,22.59
2022-07-30T11:56:13.953Z,22.59
2022-07-30T11:57:11.065Z,22.61
2022-07-30T11:58:15.072Z,22.60
2022-07-30T11:59:11.065Z,22.56
2022-07-30T12:00:11.066Z,22.50
2022-07-30T12:01:15.072Z,22.50
2022-07-30T12:02:11.066Z,22.53
2022-07-30T12:03:15.069Z,22.57
2022-07-30T12:04:11.064Z,22.54
2022-07-30T12:05:11.067Z,22.49
2022-07-30T12:06:12.064Z,22.43
2022-07-30T12:07:11.065Z,22.43
2022-07-30T12:08:33.557Z,22.46
2022-07-30T12:09:13.468Z,22.37
2022-07-30T12:10:16.250Z,22.33
2022-07-30T12:11:11.068Z,22.40
2022-07-30T12:12:19.089Z,22.39
2022-07-30T12:13:15.067Z,22.45
2022-07-30T12:14:11.067Z,22.48
2022-07-30T12:15:11.075Z,22.44
2022-07-30T12:16:11.066Z,22.41
2022-07-30T12:17:15.114Z,22.47
2022-07-30T12:18:25.809Z,22.51
2022-07-30T12:19:13.156Z,22.46
2022-07-30T12:20:17.069Z,22.48
2022-07-30T12:21:12.102Z,22.50
2022-07-30T12:22:11.069Z,22.55
2022-07-30T12:23:15.057Z,22.62
2022-07-30T12:24:13.115Z,22.65
2022-07-30T12:25:11.066Z,22.76
2022-07-30T12:26:15.056Z,22.76
2022-07-30T12:27:11.055Z,22.82
2022-07-30T12:28:17.067Z,22.93
2022-07-30T12:29:11.059Z,23.07
2022-07-30T12:30:11.071Z,23.13
2022-07-30T12:31:14.067Z,23.26
2022-07-30T12:32:11.059Z,23.36
2022-07-30T12:33:11.058Z,23.50
2022-07-30T12:34:19.062Z,23.57
2022-07-30T12:35:11.070Z,23.62
2022-07-30T12:36:15.062Z,23.59
2022-07-30T12:37:11.087Z,23.60
2022-07-30T12:38:11.069Z,23.57
2022-07-30T12:39:19.063Z,23.56
2022-07-30T12:40:15.322Z,23.58
2022-07-30T12:41:11.063Z,23.61
2022-07-30T12:42:19.074Z,23.60
2022-07-30T12:43:13.543Z,23.61
2022-07-30T12:44:11.060Z,23.65
2022-07-30T12:45:19.063Z,23.68
2022-07-30T12:46:14.838Z,23.69
2022-07-30T12:47:19.073Z,23.74
2022-07-30T12:48:13.063Z,23.73
2022-07-30T12:49:22.441Z,23.63
2022-07-30T12:50:19.794Z,23.61
2022-07-30T12:51:11.066Z,23.64
2022-07-30T12:52:18.560Z,23.58